createdAt,value
2022-11-17T00:03:59.426Z,5.47
2022-11-17T00:09:01.427Z,3.93
2022-11-17T00:14:21.832Z,4.68
2022-11-17T00:19:42.333Z,5.76
2022-11-17T00:24:44.289Z,3.16
2022-11-17T00:29:46.362Z,3.89
2022-11-17T00:34:48.273Z,3.65
2022-11-17T00:39:50.211Z,3.31
2022-11-17T00:44:52.106Z,3.83
2022-11-17T00:49:54.071Z,3.33
2022-11-17T00:54:55.975Z,3.73
2022-11-17T00:59:57.884Z,3.43
2022-11-17T01:04:59.790Z,3.59
2022-11-17T01:10:01.716Z,4.29
2022-11-17T01:15:04.144Z,4.67
2022-11-17T01:20:06.819Z,3.28
2022-11-17T01:25:09.015Z,4.57
2022-11-17T01:30:12.474Z,4.14
2022-11-17T01:35:14.462Z,3.32
2022-11-17T01:40:16.403Z,4.40
2022-11-17T01:45:21.652Z,6.49
2022-11-17T01:50:42.765Z,6.36
2022-11-17T01:55:51.097Z,7.16
2022-11-17T02:00:54.575Z,6.60
2022-11-17T02:06:08.584Z,6.70
2022-11-17T02:11:14.610Z,7.35
2022-11-17T02:16:17.652Z,7.71
2022-11-17T02:21:31.610Z,6.97
2022-11-17T02:26:52.041Z,4.97
2022-11-17T02:32:06.646Z,5.20
2022-11-17T02:37:29.868Z,6.12
2022-11-17T02:43:00.970Z,7.21
2022-11-17T02:48:12.185Z,5.84
2022-11-17T02:53:15.853Z,4.69
2022-11-17T02:58:17.973Z,5.74
2022-11-17T03:03:46.086Z,6.84
2022-11-17T03:09:20.377Z,6.40
2022-11-17T03:14:40.637Z,7.05
2022-11-17T03:19:47.903Z,6.52
2022-11-17T03:24:53.858Z,3.51
2022-11-17T03:30:00.684Z,5.19
2022-11-17T03:35:10.319Z,4.33
2022-11-17T03:40:15.105Z,4.27
2022-11-17T03:45:34.542Z,6.58
2022-11-17T03:51:09.291Z,7.49
2022-11-17T03:56:22.881Z,7.12
2022-11-17T04:01:27.690Z,5.01
2022-11-17T04:06:29.677Z,5.49
2022-11-17T04:11:49.984Z,6.82
2022-11-17T04:16:51.895Z,6.98
2022-11-17T04:21:53.813Z,6.74
2022-11-17T04:27:14.249Z,8.66
2022-11-17T04:32:16.200Z,8.72
2022-11-17T04:37:18.302Z,7.69
2022-11-17T04:42:20.203Z,8.05
2022-11-17T04:47:22.088Z,9.10
2022-11-17T04:52:29.464Z,9.78
2022-11-17T04:57:31.748Z,8.06
2022-11-17T05:02:33.733Z,8.92
2022-11-17T05:07:35.835Z,9.59
2022-11-17T05:12:56.540Z,9.56
2022-11-17T05:17:58.500Z,9.45
2022-11-17T05:23:19.002Z,6.42
2022-11-17T05:28:21.519Z,7.60
2022-11-17T05:33:24.270Z,7.99
2022-11-17T05:38:26.387Z,8.53
2022-11-17T05:43:28.440Z,9.42
2022-11-17T05:48:30.865Z,10.26
2022-11-17T05:53:33.514Z,10.14
2022-11-17T05:58:39.067Z,9.04
2022-11-17T06:03:50.976Z,9.28
2022-11-17T06:08:53.057Z,8.22
2022-11-17T06:13:55.055Z,9.11
2022-11-17T06:19:04.004Z,8.02
2022-11-17T06:24:08.680Z,9.13
2022-11-17T06:29:12.374Z,9.81
2022-11-17T06:34:14.445Z,10.04
2022-11-17T06:39:16.404Z,10.59
2022-11-17T06:44:18.431Z,9.21
2022-11-17T06:49:20.450Z,9.18
2022-11-17T06:54:22.429Z,9.67
2022-11-17T06:59:25.087Z,10.46
2022-11-17T07:04:27.046Z,10.24
2022-11-17T07:09:28.985Z,9.95
2022-11-17T07:14:31.134Z,8.06
2022-11-17T07:19:33.116Z,9.09
2022-11-17T07:24:35.051Z,9.19
2022-11-17T07:29:37.011Z,9.89
2022-11-17T07:34:39.007Z,10.17
2022-11-17T07:39:40.975Z,9.87
2022-11-17T07:44:43.486Z,9.18
2022-11-17T07:49:45.523Z,6.88
2022-11-17T07:54:47.524Z,8.34
2022-11-17T07:59:49.557Z,9.96
2022-11-17T08:04:51.469Z,10.81
2022-11-17T08:09:53.382Z,11.06
2022-11-17T08:14:55.287Z,11.46
2022-11-17T08:19:57.278Z,8.66
2022-11-17T08:24:59.254Z,9.31
2022-11-17T08:30:01.208Z,10.18
2022-11-17T08:35:05.855Z,10.63
2022-11-17T08:40:08.404Z,11.42
2022-11-17T08:45:10.818Z,8.69
2022-11-17T08:50:13.026Z,5.24
2022-11-17T08:55:15.458Z,6.71
2022-11-17T09:00:19.932Z,8.39
2022-11-17T09:05:21.898Z,9.88
2022-11-17T09:10:23.891Z,10.11
2022-11-17T09:15:25.844Z,10.47
2022-11-17T09:20:28.028Z,9.16
2022-11-17T09:25:30.566Z,10.76
2022-11-17T09:30:32.511Z,10.71
2022-11-17T09:35:34.421Z,9.34
2022-11-17T09:40:38.697Z,5.79
2022-11-17T09:45:41.149Z,8.74
2022-11-17T09:50:44.316Z,10.11
2022-11-17T09:55:51.015Z,9.23
2022-11-17T10:00:54.430Z,8.73
2022-11-17T10:05:58.496Z,8.28
2022-11-17T10:11:00.587Z,11.09
2022-11-17T10:16:13.327Z,12.08
2022-11-17T10:21:15.301Z,12.25
2022-11-17T10:26:17.283Z,13.39
2022-11-17T10:31:19.774Z,12.96
2022-11-17T10:36:27.949Z,12.21
2022-11-17T10:41:43.244Z,11.48
2022-11-17T10:47:25.375Z,11.13
2022-11-17T10:52:27.444Z,10.73
2022-11-17T10:57:29.400Z,10.32
2022-11-17T11:02:35.445Z,9.88
2022-11-17T11:07:38.443Z,9.00
2022-11-17T11:12:50.510Z,8.86
2022-11-17T11:17:52.420Z,9.37
2022-11-17T11:23:05.854Z,9.79
2022-11-17T11:28:28.381Z,9.32
2022-11-17T11:33:45.510Z,9.54
2022-11-17T11:38:50.641Z,10.87
2022-11-17T11:43:58.553Z,10.12
2022-11-17T11:49:15.379Z,10.45
2022-11-17T11:54:39.421Z,9.18
2022-11-17T11:59:50.282Z,8.63
2022-11-17T12:05:07.727Z,8.46
2022-11-17T12:10:31.349Z,9.73
2022-11-17T12:15:35.427Z,8.24
2022-11-17T12:20:46.228Z,7.78
2022-11-17T12:25:54.155Z,9.60
2022-11-17T12:31:06.700Z,8.89
2022-11-17T12:36:29.760Z,8.70
2022-11-17T12:41:47.588Z,8.68
2022-11-17T12:46:55.640Z,8.54
2022-11-17T12:52:07.742Z,9.48
2022-11-17T12:57:18.638Z,10.45
2022-11-17T13:02:59.418Z,11.45
2022-11-17T13:08:21.523Z,9.33
2022-11-17T13:13:24.687Z,9.43
2022-11-17T13:18:37.666Z,8.33
2022-11-17T13:23:44.786Z,7.60
2022-11-17T13:28:47.489Z,5.93
2022-11-17T13:34:19.392Z,7.38
2022-11-17T13:39:26.862Z,6.85
2022-11-17T13:44:29.558Z,8.35
2022-11-17T13:49:39.361Z,7.78
2022-11-17T13:54:44.775Z,7.02
2022-11-17T13:59:47.855Z,7.66
2022-11-17T14:05:08.427Z,7.50
2022-11-17T14:10:31.678Z,9.09
2022-11-17T14:15:39.689Z,9.06
2022-11-17T14:20:41.720Z,8.77
2022-11-17T14:25:45.827Z,9.99
2022-11-17T14:30:51.891Z,10.54
2022-11-17T14:35:59.294Z,10.40
2022-11-17T14:41:01.262Z,11.63
2022-11-17T14:46:03.618Z,10.73
2022-11-17T14:51:05.707Z,10.48
2022-11-17T14:56:08.969Z,9.06
2022-11-17T15:01:20.008Z,9.26
2022-11-17T15:06:22.982Z,8.40
2022-11-17T15:11:26.733Z,9.02
2022-11-17T15:16:28.815Z,9.74
2022-11-17T15:21:30.805Z,10.09
2022-11-17T15:26:34.166Z,9.43
2022-11-17T15:31:36.752Z,9.53
2022-11-17T15:36:38.862Z,8.16
2022-11-17T15:41:41.006Z,8.73
2022-11-17T15:46:47.151Z,8.26
2022-11-17T15:51:49.673Z,9.82
2022-11-17T15:56:52.154Z,9.05
2022-11-17T16:01:54.205Z,7.70
2022-11-17T16:06:56.138Z,7.82
2022-11-17T16:11:58.769Z,9.61
2022-11-17T16:17:00.883Z,8.56
2022-11-17T16:22:02.829Z,9.14
2022-11-17T16:27:04.993Z,9.30
2022-11-17T16:32:07.023Z,10.11
2022-11-17T16:37:09.136Z,12.29
2022-11-17T16:42:11.059Z,9.25
2022-11-17T16:47:13.027Z,6.48
2022-11-17T16:52:15.016Z,8.46
2022-11-17T16:57:16.967Z,9.47
2022-11-17T17:02:19.727Z,9.00
2022-11-17T17:07:21.964Z,9.40
2022-11-17T17:12:23.961Z,11.18
2022-11-17T17:17:26.149Z,7.20
2022-11-17T17:22:28.468Z,9.89
2022-11-17T17:27:31.745Z,11.28
2022-11-17T17:32:34.091Z,11.71
2022-11-17T17:37:36.112Z,10.90
2022-11-17T17:42:38.107Z,9.44
2022-11-17T17:47:40.125Z,8.75
2022-11-17T17:52:42.272Z,8.77
2022-11-17T17:57:44.544Z,9.10
2022-11-17T18:02:46.763Z,8.17
2022-11-17T18:07:49.842Z,8.97
2022-11-17T18:12:52.218Z,7.51
2022-11-17T18:17:54.161Z,6.42
2022-11-17T18:22:56.743Z,7.72
2022-11-17T18:27:58.817Z,5.60
2022-11-17T18:33:03.114Z,5.01
2022-11-17T18:38:05.739Z,6.82
2022-11-17T18:43:07.765Z,8.12
2022-11-17T18:48:09.729Z,4.92
2022-11-17T18:53:19.859Z,3.87
2022-11-17T18:58:40.253Z,4.21
2022-11-17T19:03:47.670Z,5.01
2022-11-17T19:08:50.356Z,4.28
2022-11-17T19:13:52.776Z,6.42
2022-11-17T19:18:56.613Z,8.37
2022-11-17T19:24:01.252Z,9.17
2022-11-17T19:29:07.811Z,9.80
2022-11-17T19:34:12.243Z,9.87
2022-11-17T19:39:15.262Z,10.24
2022-11-17T19:44:21.008Z,10.17
2022-11-17T19:49:23.473Z,10.05
2022-11-17T19:54:25.982Z,7.30
2022-11-17T19:59:28.080Z,9.52
2022-11-17T20:04:30.561Z,10.43
2022-11-17T20:09:32.737Z,10.40
2022-11-17T20:14:35.462Z,9.91
2022-11-17T20:19:38.154Z,10.81
2022-11-17T20:24:40.478Z,10.42
2022-11-17T20:29:43.180Z,10.29
2022-11-17T20:34:48.197Z,8.58
2022-11-17T20:39:56.963Z,7.78
2022-11-17T20:45:04.853Z,7.87
2022-11-17T20:50:07.881Z,9.05
2022-11-17T20:55:11.122Z,7.75
2022-11-17T21:00:13.677Z,8.22
2022-11-17T21:05:15.773Z,7.84
2022-11-17T21:10:17.727Z,6.48
2022-11-17T21:15:19.688Z,6.62
2022-11-17T21:20:21.729Z,6.97
2022-11-17T21:25:23.842Z,5.88
2022-11-17T21:30:25.849Z,4.88
2022-11-17T21:35:27.864Z,4.25
2022-11-17T21:40:29.946Z,4.82
2022-11-17T21:45:33.608Z,6.93
2022-11-17T21:50:35.589Z,6.61
2022-11-17T21:55:37.563Z,7.65
2022-11-17T22:00:39.522Z,5.66
2022-11-17T22:05:41.627Z,5.87
2022-11-17T22:10:43.557Z,7.38
2022-11-17T22:15:45.541Z,6.63
2022-11-17T22:20:51.809Z,5.02
2022-11-17T22:25:59.706Z,3.98
2022-11-17T22:31:09.403Z,4.82
2022-11-17T22:36:11.840Z,5.70
2022-11-17T22:41:14.399Z,3.22
2022-11-17T22:46:16.516Z,4.65
2022-11-17T22:51:37.708Z,3.98
2022-11-17T22:56:39.673Z,3.85
2022-11-17T23:01:41.700Z,3.50
2022-11-17T23:06:44.466Z,4.31
2022-11-17T23:11:46.698Z,4.74
2022-11-17T23:16:48.681Z,4.34
2022-11-17T23:21:50.694Z,3.09
2022-11-17T23:26:52.625Z,3.95
2022-11-17T23:31:54.680Z,3.08
2022-11-17T23:37:00.909Z,3.79
2022-11-17T23:42:06.008Z,5.64
2022-11-17T23:47:08.074Z,2.72
2022-11-17T23:52:10.028Z,3.03
2022-11-17T23:57:11.956Z,3.60
